createdAt,value
2023-03-12T00:02:04.545Z,13.40
2023-03-12T00:04:42.214Z,13.40
2023-03-12T00:07:13.386Z,13.40
2023-03-12T00:09:47.567Z,13.40
2023-03-12T00:12:16.105Z,13.30
2023-03-12T00:14:43.433Z,13.30
2023-03-12T00:17:11.649Z,13.20
2023-03-12T00:19:38.848Z,13.20
2023-03-12T00:25:01.865Z,13.20
2023-03-12T00:27:33.618Z,13.20
2023-03-12T00:30:09.803Z,13.20
2023-03-12T00:32:38.011Z,13.20
2023-03-12T00:35:12.150Z,13.10
2023-03-12T00:37:46.713Z,13.10
2023-03-12T00:40:30.195Z,13.10
2023-03-12T00:42:57.492Z,13.20
2023-03-12T00:45:25.580Z,13.20
2023-03-12T00:47:58.385Z,13.20
2023-03-12T00:50:42.917Z,13.10
2023-03-12T00:53:10.456Z,13.20
2023-03-12T00:55:41.041Z,13.10
2023-03-12T00:58:14.414Z,13.10
2023-03-12T01:00:49.251Z,13.20
2023-03-12T01:03:27.038Z,13.20
2023-03-12T01:05:57.862Z,13.20
2023-03-12T01:08:30.462Z,13.10
2023-03-12T01:11:00.603Z,13.10
2023-03-12T01:13:44.581Z,13.10
2023-03-12T01:16:15.499Z,13.10
2023-03-12T01:18:43.155Z,13.10
2023-03-12T01:21:11.543Z,13.10
2023-03-12T01:23:38.675Z,13.10
2023-03-12T01:26:07.063Z,13.10
2023-03-12T01:28:34.196Z,13.00
2023-03-12T01:31:11.233Z,13.00
2023-03-12T01:33:44.369Z,12.90
2023-03-12T01:36:24.978Z,12.90
2023-03-12T01:39:02.127Z,12.80
2023-03-12T01:41:41.534Z,12.80
2023-03-12T01:44:14.574Z,12.80
2023-03-12T01:46:44.799Z,12.80
2023-03-12T01:49:28.438Z,12.80
2023-03-12T01:52:31.827Z,12.80
2023-03-12T01:55:13.096Z,12.80
2023-03-12T01:57:52.460Z,12.80
2023-03-12T02:00:29.622Z,12.80
2023-03-12T02:03:05.167Z,12.80
2023-03-12T02:05:46.587Z,12.90
2023-03-12T02:08:15.976Z,12.90
2023-03-12T02:10:46.466Z,12.90
2023-03-12T02:13:17.401Z,13.00
2023-03-12T02:15:47.621Z,12.90
2023-03-12T02:18:24.087Z,12.90
2023-03-12T02:21:12.875Z,12.90
2023-03-12T02:24:27.105Z,12.80
2023-03-12T02:27:06.034Z,12.90
2023-03-12T02:29:40.458Z,12.80
2023-03-12T02:32:24.983Z,12.90
2023-03-12T02:35:16.782Z,12.80
2023-03-12T02:37:54.853Z,12.80
2023-03-12T02:40:44.400Z,12.80
2023-03-12T02:43:12.281Z,12.80
2023-03-12T02:45:40.096Z,12.80
2023-03-12T02:48:12.459Z,12.80
2023-03-12T02:50:41.645Z,12.80
2023-03-12T02:53:12.394Z,12.80
2023-03-12T02:55:41.052Z,12.80
2023-03-12T02:58:16.620Z,12.80
2023-03-12T03:00:45.136Z,12.70
2023-03-12T03:03:16.946Z,12.70
2023-03-12T03:05:44.219Z,12.70
2023-03-12T03:08:12.966Z,12.70
2023-03-12T03:10:40.379Z,12.70
2023-03-12T03:13:07.595Z,12.70
2023-03-12T03:15:35.242Z,12.60
2023-03-12T03:18:07.368Z,12.50
2023-03-12T03:20:38.104Z,12.50
2023-03-12T03:23:07.599Z,12.50
2023-03-12T03:25:34.801Z,12.50
2023-03-12T03:28:10.604Z,12.60
2023-03-12T03:30:41.639Z,12.50
2023-03-12T03:33:11.749Z,12.50
2023-03-12T03:35:39.292Z,12.50
2023-03-12T03:38:10.274Z,12.40
2023-03-12T03:40:38.953Z,12.50
2023-03-12T03:43:06.415Z,12.50
2023-03-12T03:45:34.644Z,12.50
2023-03-12T03:48:03.332Z,12.50
2023-03-12T03:50:31.901Z,12.50
2023-03-12T03:53:02.959Z,12.50
2023-03-12T03:55:32.080Z,12.50
2023-03-12T03:57:59.310Z,12.40
2023-03-12T04:00:31.508Z,12.40
2023-03-12T04:02:59.352Z,12.30
2023-03-12T04:05:26.458Z,12.30
2023-03-12T04:07:59.076Z,12.30
2023-03-12T04:10:29.036Z,12.30
2023-03-12T04:12:59.127Z,12.30
2023-03-12T04:15:28.848Z,12.30
2023-03-12T04:17:57.422Z,12.30
2023-03-12T04:20:35.279Z,12.30
2023-03-12T04:23:03.612Z,12.30
2023-03-12T04:25:38.902Z,12.30
2023-03-12T04:28:07.241Z,12.30
2023-03-12T04:30:38.736Z,12.30
2023-03-12T04:33:08.414Z,12.30
2023-03-12T04:35:37.915Z,12.30
2023-03-12T04:38:08.146Z,12.30
2023-03-12T04:40:36.675Z,12.30
2023-03-12T04:45:50.642Z,12.10
2023-03-12T04:48:17.825Z,12.20
2023-03-12T04:50:48.646Z,12.20
2023-03-12T04:53:20.486Z,12.10
2023-03-12T04:55:53.738Z,12.10
2023-03-12T04:58:22.680Z,12.10
2023-03-12T05:00:55.203Z,12.10
2023-03-12T05:03:24.150Z,12.10
2023-03-12T05:05:54.437Z,12.10
2023-03-12T05:08:23.825Z,12.10
2023-03-12T05:10:51.242Z,12.10
2023-03-12T05:13:21.101Z,12.00
2023-03-12T05:15:50.786Z,12.00
2023-03-12T05:18:20.536Z,12.00
2023-03-12T05:20:57.327Z,12.00
2023-03-12T05:23:24.605Z,11.90
2023-03-12T05:25:51.596Z,11.90
2023-03-12T05:28:20.166Z,11.90
2023-03-12T05:30:47.310Z,11.90
2023-03-12T05:33:14.963Z,11.90
2023-03-12T05:35:42.058Z,12.00
2023-03-12T05:38:09.152Z,12.00
2023-03-12T05:40:36.117Z,12.00
2023-03-12T05:43:03.549Z,12.00
2023-03-12T05:45:30.684Z,12.00
2023-03-12T05:47:59.884Z,12.00
2023-03-12T05:50:28.679Z,12.00
2023-03-12T05:52:55.555Z,12.00
2023-03-12T05:55:22.460Z,11.90
2023-03-12T05:57:49.310Z,11.90
2023-03-12T06:00:16.738Z,11.90
2023-03-12T06:02:52.382Z,11.90
2023-03-12T06:05:20.820Z,11.90
2023-03-12T06:07:47.838Z,11.90
2023-03-12T06:10:15.218Z,11.90
2023-03-12T06:12:42.113Z,11.80
2023-03-12T06:15:10.100Z,11.80
2023-03-12T06:17:37.328Z,11.80
2023-03-12T06:20:04.753Z,11.80
2023-03-12T06:22:31.687Z,11.80
2023-03-12T06:24:59.943Z,11.80
2023-03-12T06:27:27.863Z,11.80
2023-03-12T06:29:54.730Z,11.80
2023-03-12T06:32:21.957Z,11.80
2023-03-12T06:34:49.038Z,11.90
2023-03-12T06:37:15.873Z,11.90
2023-03-12T06:39:43.291Z,11.90
2023-03-12T06:42:10.893Z,12.10
2023-03-12T06:44:38.151Z,12.20
2023-03-12T06:47:05.217Z,12.30
2023-03-12T06:49:33.343Z,12.40
2023-03-12T06:52:00.207Z,12.50
2023-03-12T06:54:29.489Z,12.50
2023-03-12T06:56:56.519Z,12.40
2023-03-12T06:59:23.378Z,12.40
2023-03-12T07:01:50.324Z,12.50
2023-03-12T07:04:17.746Z,12.60
2023-03-12T07:06:44.735Z,12.60
2023-03-12T07:09:11.601Z,12.70
2023-03-12T07:11:38.432Z,12.80
2023-03-12T07:14:05.310Z,12.90
2023-03-12T07:16:32.203Z,13.00
2023-03-12T07:18:59.113Z,13.00
2023-03-12T07:21:26.214Z,13.10
2023-03-12T07:23:53.756Z,13.20
2023-03-12T07:26:21.088Z,13.30
2023-03-12T07:28:49.414Z,13.20
2023-03-12T07:31:16.266Z,13.30
2023-03-12T07:33:43.214Z,13.30
2023-03-12T07:36:10.520Z,13.20
2023-03-12T07:38:37.435Z,13.40
2023-03-12T07:41:04.530Z,13.50
2023-03-12T07:43:31.613Z,13.50
2023-03-12T07:45:59.191Z,13.60
2023-03-12T07:48:26.306Z,13.70
2023-03-12T07:50:53.256Z,13.80
2023-03-12T07:53:20.211Z,13.80
2023-03-12T07:55:48.212Z,13.80
2023-03-12T07:58:37.024Z,13.90
2023-03-12T08:01:04.193Z,14.00
2023-03-12T08:03:33.574Z,14.10
2023-03-12T08:06:03.066Z,14.20
2023-03-12T08:08:31.433Z,14.30
2023-03-12T08:10:59.936Z,14.30
2023-03-12T08:13:26.878Z,14.30
2023-03-12T08:15:54.576Z,14.40
2023-03-12T08:18:22.134Z,14.40
2023-03-12T08:20:54.272Z,14.40
2023-03-12T08:23:22.250Z,14.50
2023-03-12T08:25:50.339Z,14.50
2023-03-12T08:28:26.012Z,14.60
2023-03-12T08:30:55.361Z,14.60
2023-03-12T08:33:22.690Z,14.50
2023-03-12T08:35:49.724Z,14.50
2023-03-12T08:38:16.744Z,14.60
2023-03-12T08:40:43.670Z,14.80
2023-03-12T08:43:10.974Z,14.70
2023-03-12T08:45:38.131Z,14.70
2023-03-12T08:48:06.900Z,14.80
2023-03-12T08:50:33.948Z,14.90
2023-03-12T08:53:00.908Z,15.10
2023-03-12T08:55:30.688Z,15.10
2023-03-12T08:57:57.668Z,15.00
2023-03-12T09:00:25.198Z,15.00
2023-03-12T09:02:53.672Z,15.10
2023-03-12T09:05:21.029Z,15.00
2023-03-12T09:07:50.011Z,15.20
2023-03-12T09:10:17.652Z,15.30
2023-03-12T09:12:45.147Z,15.50
2023-03-12T09:15:12.095Z,15.40
2023-03-12T09:17:39.338Z,15.30
2023-03-12T09:20:08.547Z,15.20
2023-03-12T09:22:39.306Z,15.30
2023-03-12T09:25:08.511Z,15.30
2023-03-12T09:27:46.572Z,15.30
2023-03-12T09:30:17.303Z,15.40
2023-03-12T09:32:47.556Z,15.50
2023-03-12T09:35:16.099Z,15.50
2023-03-12T09:37:43.089Z,15.70
2023-03-12T09:40:17.772Z,15.80
2023-03-12T09:42:50.079Z,16.10
2023-03-12T09:45:27.122Z,16.10
2023-03-12T09:48:13.398Z,16.20
2023-03-12T09:50:43.833Z,16.30
2023-03-12T09:53:41.230Z,16.40
2023-03-12T09:56:15.638Z,16.10
2023-03-12T09:58:44.562Z,16.00
2023-03-12T10:01:38.802Z,15.80
2023-03-12T10:04:17.773Z,15.90
2023-03-12T10:07:19.782Z,15.90
2023-03-12T10:09:46.790Z,15.90
2023-03-12T10:16:02.925Z,16.10
2023-03-12T10:18:55.933Z,15.90
2023-03-12T10:21:48.942Z,16.10
2023-03-12T10:24:25.201Z,16.30
2023-03-12T10:26:56.071Z,16.40
2023-03-12T10:29:33.106Z,16.30
2023-03-12T10:32:11.086Z,16.20
2023-03-12T10:35:05.063Z,16.30
2023-03-12T10:37:39.190Z,16.40
2023-03-12T10:40:06.667Z,16.40
2023-03-12T10:42:33.737Z,16.60
2023-03-12T10:45:17.894Z,16.80
2023-03-12T10:47:48.824Z,17.00
2023-03-12T10:50:25.337Z,16.90
2023-03-12T10:53:11.437Z,17.00
2023-03-12T10:55:39.623Z,17.10
2023-03-12T10:58:06.592Z,17.00
2023-03-12T11:00:34.034Z,17.10
2023-03-12T11:03:20.477Z,17.00
2023-03-12T11:05:50.414Z,17.10
2023-03-12T11:08:29.412Z,17.10
2023-03-12T11:10:59.653Z,17.10
2023-03-12T11:13:39.740Z,17.10
2023-03-12T11:16:18.788Z,17.10
2023-03-12T11:19:03.744Z,17.20
2023-03-12T11:21:35.411Z,17.40
2023-03-12T11:24:09.653Z,17.30
2023-03-12T11:26:45.569Z,17.40
2023-03-12T11:29:24.115Z,17.60
2023-03-12T11:31:53.833Z,17.20
2023-03-12T11:34:31.231Z,17.20
2023-03-12T11:37:26.804Z,17.40
2023-03-12T11:40:26.990Z,17.70
2023-03-12T11:42:54.003Z,17.70
2023-03-12T11:45:45.704Z,17.80
2023-03-12T11:48:57.296Z,17.80
2023-03-12T11:51:46.460Z,17.90
2023-03-12T11:54:25.958Z,17.90
2023-03-12T11:57:10.357Z,17.90
2023-03-12T12:00:18.923Z,17.70
2023-03-12T12:03:19.456Z,17.80
2023-03-12T12:06:08.808Z,18.00
2023-03-12T12:08:47.133Z,18.20
2023-03-12T12:11:23.945Z,18.10
2023-03-12T12:14:05.114Z,18.00
2023-03-12T12:16:40.174Z,18.00
2023-03-12T12:19:46.176Z,18.20
2023-03-12T12:22:31.426Z,18.30
2023-03-12T12:25:26.047Z,18.10
2023-03-12T12:28:24.091Z,18.30
2023-03-12T12:31:06.224Z,18.50
2023-03-12T12:33:47.553Z,18.70
2023-03-12T12:36:17.060Z,18.80
2023-03-12T12:38:54.147Z,18.80
2023-03-12T12:41:29.705Z,18.80
2023-03-12T12:44:01.252Z,18.90
2023-03-12T12:46:39.960Z,18.90
2023-03-12T12:49:50.827Z,18.90
2023-03-12T12:52:22.259Z,18.80
2023-03-12T12:55:24.526Z,18.70
2023-03-12T12:58:04.977Z,18.90
2023-03-12T13:00:47.089Z,18.80
2023-03-12T13:03:23.633Z,19.10
2023-03-12T13:05:59.030Z,19.30
2023-03-12T13:08:43.318Z,19.50
2023-03-12T13:11:19.743Z,19.30
2023-03-12T13:14:02.882Z,19.40
2023-03-12T13:16:36.280Z,19.70
2023-03-12T13:19:15.161Z,19.50
2023-03-12T13:22:21.417Z,19.50
2023-03-12T13:24:51.968Z,19.80
2023-03-12T13:27:22.680Z,19.60
2023-03-12T13:29:56.287Z,19.60
2023-03-12T13:32:55.659Z,19.60
2023-03-12T13:35:22.568Z,19.70
2023-03-12T13:38:33.695Z,19.40
2023-03-12T13:41:02.257Z,19.40
2023-03-12T13:43:38.183Z,19.40
2023-03-12T13:46:07.177Z,19.30
2023-03-12T13:48:35.917Z,19.30
2023-03-12T13:51:17.381Z,19.50
2023-03-12T13:53:53.508Z,19.50
2023-03-12T13:56:28.207Z,19.20
2023-03-12T13:59:05.996Z,19.20
2023-03-12T14:01:39.222Z,19.30
2023-03-12T14:04:11.975Z,19.40
2023-03-12T14:07:16.859Z,19.60
2023-03-12T14:09:54.105Z,19.50
2023-03-12T14:12:40.594Z,19.80
2023-03-12T14:15:35.488Z,19.90
2023-03-12T14:18:11.773Z,20.10
2023-03-12T14:20:40.000Z,19.80
2023-03-12T14:23:13.246Z,19.60
2023-03-12T14:25:44.884Z,19.80
2023-03-12T14:28:21.982Z,19.90
2023-03-12T14:31:14.890Z,19.60
2023-03-12T14:33:55.784Z,19.30
2023-03-12T14:36:27.692Z,19.30
2023-03-12T14:39:01.070Z,19.30
2023-03-12T14:41:34.401Z,19.30
2023-03-12T14:44:23.892Z,19.40
2023-03-12T14:47:00.237Z,19.30
2023-03-12T14:49:29.904Z,19.10
2023-03-12T14:51:57.769Z,18.90
2023-03-12T14:54:27.712Z,19.10
2023-03-12T14:56:54.686Z,19.20
2023-03-12T14:59:29.062Z,19.30
2023-03-12T15:02:00.609Z,19.50
2023-03-12T15:04:28.908Z,19.50
2023-03-12T15:07:03.444Z,20.10
2023-03-12T15:09:34.870Z,20.20
2023-03-12T15:12:08.171Z,20.50
2023-03-12T15:14:44.378Z,20.80
2023-03-12T15:17:21.225Z,20.80
2023-03-12T15:19:54.693Z,21.20
2023-03-12T15:22:24.921Z,21.20
2023-03-12T15:24:52.203Z,21.00
2023-03-12T15:27:28.394Z,20.70
2023-03-12T15:29:57.778Z,20.20
2023-03-12T15:32:26.817Z,19.00
2023-03-12T15:34:56.540Z,18.40
2023-03-12T15:37:38.178Z,18.00
2023-03-12T15:40:16.612Z,17.70
2023-03-12T15:42:46.148Z,17.50
2023-03-12T15:45:44.560Z,17.20
2023-03-12T15:48:29.768Z,17.10
2023-03-12T15:50:56.824Z,16.90
2023-03-12T15:53:28.712Z,16.80
2023-03-12T15:56:03.661Z,16.70
2023-03-12T15:58:41.875Z,16.70
2023-03-12T16:01:14.066Z,16.80
2023-03-12T16:03:43.600Z,16.80
2023-03-12T16:06:18.891Z,16.80
2023-03-12T16:09:01.242Z,16.80
2023-03-12T16:11:33.775Z,16.80
2023-03-12T16:14:21.319Z,16.70
2023-03-12T16:16:48.358Z,16.70
2023-03-12T16:19:20.929Z,16.60
2023-03-12T16:21:48.539Z,16.60
2023-03-12T16:24:16.657Z,16.50
2023-03-12T16:26:52.866Z,16.40
2023-03-12T16:29:21.123Z,16.40
2023-03-12T16:31:57.003Z,16.40
2023-03-12T16:34:24.230Z,16.40
2023-03-12T16:36:51.791Z,16.30
2023-03-12T16:39:19.087Z,16.20
2023-03-12T16:41:47.183Z,16.20
2023-03-12T16:44:21.034Z,16.10
2023-03-12T16:46:48.008Z,16.10
2023-03-12T16:49:17.101Z,16.10
2023-03-12T16:51:44.145Z,16.00
2023-03-12T16:54:12.131Z,16.00
2023-03-12T16:56:42.972Z,15.90
2023-03-12T16:59:31.872Z,15.80
2023-03-12T17:01:58.813Z,15.70
2023-03-12T17:04:25.850Z,15.70
2023-03-12T17:06:52.777Z,15.70
2023-03-12T17:09:19.887Z,15.60
2023-03-12T17:11:50.500Z,15.50
2023-03-12T17:14:22.113Z,15.50
2023-03-12T17:16:49.191Z,15.40
2023-03-12T17:19:16.859Z,15.20
2023-03-12T17:21:44.328Z,15.20
2023-03-12T17:24:14.131Z,15.20
2023-03-12T17:26:43.001Z,15.10
2023-03-12T17:29:24.013Z,15.10
2023-03-12T17:31:51.153Z,15.00
2023-03-12T17:34:20.651Z,14.90
2023-03-12T17:36:50.466Z,14.90
2023-03-12T17:39:21.282Z,14.80
2023-03-12T17:41:48.437Z,14.80
2023-03-12T17:44:16.022Z,14.80
2023-03-12T17:46:56.426Z,14.80
2023-03-12T17:49:27.942Z,14.70
2023-03-12T17:52:01.201Z,14.70
2023-03-12T17:54:28.451Z,14.60
2023-03-12T17:56:56.937Z,14.50
2023-03-12T17:59:25.621Z,14.30
2023-03-12T18:01:59.167Z,14.30
2023-03-12T18:04:27.645Z,14.40
2023-03-12T18:06:54.622Z,14.40
2023-03-12T18:09:21.632Z,14.30
2023-03-12T18:11:51.550Z,14.20
2023-03-12T18:14:18.680Z,14.20
2023-03-12T18:16:47.515Z,14.20
2023-03-12T18:19:14.669Z,14.20
2023-03-12T18:21:42.646Z,14.20
2023-03-12T18:24:13.970Z,14.20
2023-03-12T18:26:42.048Z,14.20
2023-03-12T18:29:08.889Z,14.10
2023-03-12T18:31:39.025Z,14.00
2023-03-12T18:34:06.056Z,14.10
2023-03-12T18:36:33.013Z,14.00
2023-03-12T18:39:04.544Z,14.10
2023-03-12T18:41:32.907Z,14.00
2023-03-12T18:44:00.439Z,14.00
2023-03-12T18:46:28.279Z,14.00
2023-03-12T18:48:55.280Z,13.90
2023-03-12T18:51:22.227Z,13.90
2023-03-12T18:53:49.406Z,13.90
2023-03-12T18:56:16.447Z,13.80
2023-03-12T18:58:43.909Z,13.70
2023-03-12T19:01:12.108Z,13.70
2023-03-12T19:03:40.137Z,13.60
2023-03-12T19:06:12.830Z,13.50
2023-03-12T19:08:40.335Z,13.60
2023-03-12T19:11:10.377Z,13.60
2023-03-12T19:13:37.270Z,13.60
2023-03-12T19:16:08.606Z,13.60
2023-03-12T19:18:36.970Z,13.50
2023-03-12T19:21:04.842Z,13.40
2023-03-12T19:23:31.948Z,13.40
2023-03-12T19:26:01.532Z,13.30
2023-03-12T19:28:28.838Z,13.30
2023-03-12T19:33:47.538Z,13.30
2023-03-12T19:36:15.702Z,13.30
2023-03-12T19:38:43.231Z,13.30
2023-03-12T19:41:12.286Z,13.30
2023-03-12T19:43:40.960Z,13.30
2023-03-12T19:46:09.303Z,13.10
2023-03-12T19:48:36.458Z,13.10
2023-03-12T19:51:11.868Z,13.00
2023-03-12T19:53:59.284Z,13.00
2023-03-12T19:56:27.833Z,13.00
2023-03-12T19:58:56.276Z,13.00
2023-03-12T20:01:44.655Z,13.00
2023-03-12T20:04:11.677Z,13.00
2023-03-12T20:06:44.126Z,12.90
2023-03-12T20:09:12.097Z,12.80
2023-03-12T20:11:41.284Z,12.80
2023-03-12T20:14:08.300Z,12.80
2023-03-12T20:16:35.279Z,12.80
2023-03-12T20:19:02.316Z,12.80
2023-03-12T20:21:30.710Z,12.80
2023-03-12T20:23:59.181Z,12.80
2023-03-12T20:26:26.392Z,12.80
2023-03-12T20:28:53.547Z,12.80
2023-03-12T20:31:21.013Z,12.70
2023-03-12T20:33:48.088Z,12.70
2023-03-12T20:36:15.107Z,12.80
2023-03-12T20:38:42.103Z,12.70
2023-03-12T20:41:14.444Z,12.60
2023-03-12T20:43:42.869Z,12.50
2023-03-12T20:46:10.426Z,12.60
2023-03-12T20:48:37.663Z,12.60
2023-03-12T20:51:07.476Z,12.50
2023-03-12T20:53:34.480Z,12.50
2023-03-12T20:56:01.862Z,12.40
2023-03-12T20:58:29.996Z,12.30
2023-03-12T21:00:59.778Z,12.30
2023-03-12T21:03:26.754Z,12.30
2023-03-12T21:05:59.329Z,12.20
2023-03-12T21:08:27.009Z,12.20
2023-03-12T21:10:54.292Z,12.20
2023-03-12T21:13:22.954Z,12.10
2023-03-12T21:15:50.319Z,12.10
2023-03-12T21:18:17.812Z,12.10
2023-03-12T21:20:45.479Z,12.00
2023-03-12T21:23:12.550Z,12.00
2023-03-12T21:25:40.927Z,12.00
2023-03-12T21:28:10.111Z,12.00
2023-03-12T21:30:37.653Z,12.10
2023-03-12T21:33:04.693Z,12.10
2023-03-12T21:35:31.700Z,12.00
2023-03-12T21:37:59.286Z,12.00
2023-03-12T21:40:26.165Z,12.00
2023-03-12T21:42:55.713Z,12.10
2023-03-12T21:45:22.906Z,12.10
2023-03-12T21:47:50.145Z,12.00
2023-03-12T21:50:18.338Z,11.90
2023-03-12T21:52:49.090Z,11.90
2023-03-12T21:55:17.200Z,11.80
2023-03-12T21:57:47.661Z,11.80
2023-03-12T22:00:16.200Z,11.80
2023-03-12T22:02:45.155Z,11.70
2023-03-12T22:05:13.957Z,11.80
2023-03-12T22:07:40.928Z,11.80
2023-03-12T22:10:12.154Z,11.80
2023-03-12T22:12:40.244Z,11.80
2023-03-12T22:15:09.731Z,11.70
2023-03-12T22:17:36.850Z,11.60
2023-03-12T22:20:03.988Z,11.60
2023-03-12T22:22:31.192Z,11.60
2023-03-12T22:24:58.535Z,11.60
2023-03-12T22:27:25.508Z,11.50
2023-03-12T22:29:53.095Z,11.50
2023-03-12T22:32:20.033Z,11.40
2023-03-12T22:34:49.507Z,11.40
2023-03-12T22:37:16.410Z,11.40
2023-03-12T22:39:43.359Z,11.40
2023-03-12T22:42:11.546Z,11.40
2023-03-12T22:44:41.287Z,11.50
2023-03-12T22:47:09.859Z,11.50
2023-03-12T22:49:38.220Z,11.50
2023-03-12T22:52:05.451Z,11.40
2023-03-12T22:54:33.508Z,11.40
2023-03-12T22:57:00.333Z,11.40
2023-03-12T22:59:27.721Z,11.50
2023-03-12T23:01:54.707Z,11.40
2023-03-12T23:04:21.822Z,11.50
2023-03-12T23:06:48.828Z,11.40
2023-03-12T23:09:15.783Z,11.30
2023-03-12T23:11:42.782Z,11.30
2023-03-12T23:14:09.786Z,11.30
2023-03-12T23:16:38.458Z,11.30
2023-03-12T23:19:05.553Z,11.40
2023-03-12T23:21:32.880Z,11.30
2023-03-12T23:24:00.321Z,11.30
2023-03-12T23:26:30.776Z,11.30
2023-03-12T23:28:59.024Z,11.20
2023-03-12T23:31:28.533Z,11.30
2023-03-12T23:33:56.935Z,11.20
2023-03-12T23:36:24.655Z,11.10
2023-03-12T23:38:51.679Z,11.20
2023-03-12T23:41:21.634Z,11.10
2023-03-12T23:43:48.925Z,11.00
2023-03-12T23:46:19.400Z,11.00
2023-03-12T23:48:47.040Z,11.00
2023-03-12T23:51:23.160Z,11.00
2023-03-12T23:53:53.052Z,10.90
2023-03-12T23:56:22.965Z,10.90
2023-03-12T23:58:51.253Z,10.70
